createdAt,value
2022-07-30T00:02:02.243Z,95985.16
2022-07-30T00:04:29.919Z,95976.16
2022-07-30T00:06:57.899Z,95982.22
2022-07-30T00:09:25.756Z,95975.19
2022-07-30T00:11:53.465Z,95976.09
2022-07-30T00:14:21.139Z,95980.78
2022-07-30T00:16:50.476Z,95979.88
2022-07-30T00:19:18.157Z,95971.41
2022-07-30T00:21:50.439Z,95971.41
2022-07-30T00:24:18.508Z,95972.53
2022-07-30T00:26:46.200Z,95961.22
2022-07-30T00:29:14.139Z,95960.91
2022-07-30T00:31:41.988Z,95965.28
2022-07-30T00:34:12.957Z,95955.63
2022-07-30T00:36:40.759Z,95961.72
2022-07-30T00:39:08.484Z,95953.91
2022-07-30T00:41:38.011Z,95958.28
2022-07-30T00:44:06.078Z,95960.16
2022-07-30T00:46:33.775Z,95968.94
2022-07-30T00:49:01.500Z,95958.91
2022-07-30T00:51:31.041Z,95958.78
2022-07-30T00:54:01.630Z,95960.81
2022-07-30T00:56:29.297Z,95955.66
2022-07-30T00:58:56.978Z,95957.34
2022-07-30T01:01:24.688Z,95956.38
2022-07-30T01:03:52.507Z,95956.59
2022-07-30T01:06:21.249Z,95951.06
2022-07-30T01:08:50.272Z,95958.28
2022-07-30T01:11:18.132Z,95951.56
2022-07-30T01:13:46.497Z,95954.22
2022-07-30T01:16:14.866Z,95959.41
2022-07-30T01:19:12.414Z,95948.28
2022-07-30T01:21:45.060Z,95948.28
2022-07-30T01:24:23.375Z,95943.72
2022-07-30T01:26:53.104Z,95952.97
2022-07-30T01:29:22.127Z,95952.03
2022-07-30T01:31:51.520Z,95949.53
2022-07-30T01:34:20.220Z,95944.84
2022-07-30T01:36:48.457Z,95940.44
2022-07-30T01:39:20.456Z,95943.72
2022-07-30T01:41:51.619Z,95947.28
2022-07-30T01:44:23.766Z,95945.41
2022-07-30T01:46:54.803Z,95941.19
2022-07-30T01:49:23.967Z,95943.06
2022-07-30T01:51:52.885Z,95940.38
2022-07-30T01:54:22.963Z,95939.94
2022-07-30T01:56:55.126Z,95941.50
2022-07-30T01:59:26.034Z,95943.56
2022-07-30T02:01:53.867Z,95946.72
2022-07-30T02:04:21.703Z,95946.53
2022-07-30T02:07:00.046Z,95942.31
2022-07-30T02:09:32.429Z,95933.84
2022-07-30T02:12:20.443Z,95938.09
2022-07-30T02:14:53.272Z,95936.34
2022-07-30T02:17:30.020Z,95943.91
2022-07-30T02:20:00.189Z,95945.91
2022-07-30T02:22:32.390Z,95958.19
2022-07-30T02:25:02.672Z,95925.19
2022-07-30T02:27:33.378Z,95939.06
2022-07-30T02:30:04.571Z,95946.34
2022-07-30T02:32:38.731Z,95947.59
2022-07-30T02:35:12.250Z,95957.81
2022-07-30T02:37:43.510Z,95962.69
2022-07-30T02:40:16.886Z,95953.91
2022-07-30T02:42:47.696Z,95952.19
2022-07-30T02:45:21.078Z,95949.84
2022-07-30T02:47:52.490Z,95949.41
2022-07-30T02:50:23.112Z,95947.50
2022-07-30T02:52:52.048Z,95941.22
2022-07-30T02:55:24.933Z,95934.34
2022-07-30T02:57:54.527Z,95927.78
2022-07-30T03:00:25.385Z,95939.50
2022-07-30T03:02:56.839Z,95939.34
2022-07-30T03:05:26.827Z,95942.63
2022-07-30T03:07:57.503Z,95939.34
2022-07-30T03:10:27.030Z,95934.47
2022-07-30T03:12:56.100Z,95929.56
2022-07-30T03:15:26.769Z,95931.31
2022-07-30T03:17:55.722Z,95928.16
2022-07-30T03:20:29.119Z,95937.88
2022-07-30T03:22:59.631Z,95939.91
2022-07-30T03:25:31.928Z,95909.41
2022-07-30T03:28:03.883Z,95928.31
2022-07-30T03:30:35.484Z,95905.03
2022-07-30T03:33:04.195Z,95934.38
2022-07-30T03:35:33.221Z,95942.09
2022-07-30T03:38:02.277Z,95947.75
2022-07-30T03:40:31.186Z,95941.00
2022-07-30T03:42:59.838Z,95930.38
2022-07-30T03:45:28.188Z,95952.19
2022-07-30T03:48:06.075Z,95950.47
2022-07-30T03:50:36.454Z,95952.34
2022-07-30T03:53:05.471Z,95951.22
2022-07-30T03:55:36.254Z,95954.69
2022-07-30T03:58:22.719Z,95957.50
2022-07-30T04:00:52.319Z,95965.50
2022-07-30T04:03:28.144Z,95965.50
2022-07-30T04:06:00.536Z,95969.28
2022-07-30T04:08:29.821Z,95976.81
2022-07-30T04:10:57.821Z,95980.75
2022-07-30T04:13:45.831Z,95985.75
2022-07-30T04:16:41.319Z,95986.53
2022-07-30T04:19:17.229Z,95986.41
2022-07-30T04:21:47.964Z,95994.69
2022-07-30T04:24:18.128Z,95992.38
2022-07-30T04:26:47.395Z,95985.31
2022-07-30T04:29:21.399Z,95998.16
2022-07-30T04:31:53.697Z,96003.94
2022-07-30T04:34:48.745Z,96002.03
2022-07-30T04:37:24.153Z,96006.56
2022-07-30T04:39:54.562Z,96005.97
2022-07-30T04:42:22.861Z,96000.78
2022-07-30T04:45:01.625Z,96004.97
2022-07-30T04:47:34.978Z,96010.66
2022-07-30T04:50:26.717Z,96013.94
2022-07-30T04:52:57.016Z,96011.53
2022-07-30T04:55:28.948Z,96017.31
2022-07-30T04:57:59.266Z,96019.69
2022-07-30T05:00:32.624Z,96018.38
2022-07-30T05:03:04.519Z,96018.88
2022-07-30T05:05:34.827Z,96020.91
2022-07-30T05:08:03.719Z,96022.91
2022-07-30T05:10:32.461Z,95999.16
2022-07-30T05:13:01.494Z,96018.53
2022-07-30T05:15:36.251Z,96021.78
2022-07-30T05:18:07.384Z,96008.66
2022-07-30T05:20:39.662Z,96016.47
2022-07-30T05:23:17.088Z,96010.53
2022-07-30T05:25:52.003Z,96020.53
2022-07-30T05:28:30.017Z,96039.47
2022-07-30T05:31:01.149Z,96037.78
2022-07-30T05:33:41.221Z,96025.41
2022-07-30T05:36:13.757Z,96038.69
2022-07-30T05:38:41.743Z,96038.69
2022-07-30T05:41:31.900Z,96042.72
2022-07-30T05:44:11.604Z,96043.69
2022-07-30T05:46:39.440Z,96043.34
2022-07-30T05:49:07.370Z,96035.66
2022-07-30T05:51:36.542Z,96059.47
2022-07-30T05:54:05.229Z,96036.28
2022-07-30T05:57:09.023Z,96052.53
2022-07-30T05:59:39.221Z,96059.78
2022-07-30T06:02:10.891Z,96052.03
2022-07-30T06:04:56.753Z,96051.38
2022-07-30T06:07:26.558Z,96038.59
2022-07-30T06:09:59.978Z,96043.88
2022-07-30T06:12:28.553Z,96059.00
2022-07-30T06:14:56.540Z,96063.25
2022-07-30T06:17:30.005Z,96042.75
2022-07-30T06:20:10.833Z,96067.16
2022-07-30T06:22:52.113Z,96067.81
2022-07-30T06:25:40.994Z,96083.06
2022-07-30T06:28:34.717Z,96076.66
2022-07-30T06:30:57.774Z,96063.91
2022-07-30T06:33:28.411Z,96066.19
2022-07-30T06:35:56.480Z,96081.69
2022-07-30T06:38:29.269Z,96069.00
2022-07-30T06:41:04.581Z,96090.28
2022-07-30T06:43:50.909Z,96073.22
2022-07-30T06:46:37.482Z,96095.31
2022-07-30T06:49:05.435Z,96086.25
2022-07-30T06:51:33.856Z,96087.91
2022-07-30T06:54:03.312Z,96098.69
2022-07-30T06:56:37.303Z,96090.97
2022-07-30T06:59:07.683Z,96084.06
2022-07-30T07:01:57.224Z,96115.75
2022-07-30T07:04:25.009Z,96113.22
2022-07-30T07:06:53.385Z,96105.38
2022-07-30T07:09:31.319Z,96110.31
2022-07-30T07:12:40.853Z,96107.69
2022-07-30T07:15:11.091Z,96096.38
2022-07-30T07:17:40.407Z,96116.56
2022-07-30T07:20:22.373Z,96111.09
2022-07-30T07:22:57.589Z,96113.69
2022-07-30T07:25:28.427Z,96111.50
2022-07-30T07:28:12.237Z,96122.78
2022-07-30T07:30:44.159Z,96119.97
2022-07-30T07:33:16.332Z,96115.81
2022-07-30T07:35:49.453Z,96121.06
2022-07-30T07:38:24.647Z,96110.31
2022-07-30T07:40:59.114Z,96109.69
2022-07-30T07:43:28.420Z,96113.78
2022-07-30T07:45:59.554Z,96115.38
2022-07-30T07:48:31.001Z,96103.34
2022-07-30T07:51:46.665Z,96095.63
2022-07-30T07:54:21.610Z,96118.72
2022-07-30T07:56:53.005Z,96096.44
2022-07-30T07:59:35.901Z,96110.78
2022-07-30T08:02:09.656Z,96103.97
2022-07-30T08:04:54.242Z,96110.44
2022-07-30T08:07:27.718Z,96110.06
2022-07-30T08:10:30.763Z,96102.34
2022-07-30T08:13:52.247Z,96105.63
2022-07-30T08:16:35.061Z,96117.94
2022-07-30T08:19:38.065Z,96119.50
2022-07-30T08:22:16.613Z,96113.66
2022-07-30T08:24:45.487Z,96110.13
2022-07-30T08:27:13.206Z,96115.22
2022-07-30T08:29:42.377Z,96122.38
2022-07-30T08:32:10.711Z,96105.34
2022-07-30T08:34:40.756Z,96114.25
2022-07-30T08:37:09.434Z,96110.69
2022-07-30T08:39:37.814Z,96111.88
2022-07-30T08:42:06.187Z,96104.09
2022-07-30T08:44:36.249Z,96108.75
2022-07-30T08:47:08.667Z,96114.13
2022-07-30T08:50:16.750Z,96118.53
2022-07-30T08:53:05.031Z,96112.53
2022-07-30T08:55:33.647Z,96105.88
2022-07-30T08:58:01.543Z,96110.31
2022-07-30T09:00:31.346Z,96114.88
2022-07-30T09:03:01.990Z,96123.53
2022-07-30T09:05:29.817Z,96125.88
2022-07-30T09:07:57.847Z,96120.19
2022-07-30T09:10:26.824Z,96123.78
2022-07-30T09:12:54.715Z,96115.47
2022-07-30T09:15:23.610Z,96119.06
2022-07-30T09:17:55.711Z,96117.53
2022-07-30T09:20:27.474Z,96117.19
2022-07-30T09:22:57.120Z,96113.66
2022-07-30T09:25:45.086Z,96120.13
2022-07-30T09:28:42.882Z,96112.25
2022-07-30T09:31:17.250Z,96121.09
2022-07-30T09:34:03.788Z,96122.22
2022-07-30T09:37:03.856Z,96113.75
2022-07-30T09:39:59.014Z,96119.97
2022-07-30T09:43:05.273Z,96118.84
2022-07-30T09:45:34.888Z,96102.41
2022-07-30T09:48:03.609Z,96116.94
2022-07-30T09:50:31.287Z,96120.16
2022-07-30T09:53:09.676Z,96118.13
2022-07-30T09:55:42.300Z,96122.97
2022-07-30T09:58:26.584Z,96120.88
2022-07-30T10:00:59.602Z,96122.03
2022-07-30T10:03:44.002Z,96120.81
2022-07-30T10:06:34.390Z,96120.59
2022-07-30T10:09:13.719Z,96117.25
2022-07-30T10:11:44.796Z,96116.19
2022-07-30T10:14:13.510Z,96112.88
2022-07-30T10:16:42.018Z,96109.06
2022-07-30T10:19:18.061Z,96106.41
2022-07-30T10:22:11.619Z,96116.44
2022-07-30T10:25:07.711Z,96107.16
2022-07-30T10:27:57.773Z,96114.53
2022-07-30T10:30:31.845Z,96110.03
2022-07-30T10:33:01.555Z,96120.28
2022-07-30T10:35:34.698Z,96121.53
2022-07-30T10:38:13.933Z,96121.97
2022-07-30T10:40:49.242Z,96110.00
2022-07-30T10:43:48.179Z,96109.00
2022-07-30T10:46:29.747Z,96102.53
2022-07-30T10:49:11.830Z,96123.16
2022-07-30T10:51:48.533Z,96115.63
2022-07-30T10:54:40.211Z,96117.19
2022-07-30T10:57:15.074Z,96114.47
2022-07-30T11:00:15.588Z,96114.19
2022-07-30T11:03:14.999Z,96107.44
2022-07-30T11:05:45.893Z,96114.84
2022-07-30T11:08:37.546Z,96117.13
2022-07-30T11:12:01.334Z,96112.44
2022-07-30T11:15:06.489Z,96110.88
2022-07-30T11:18:01.912Z,96118.44
2022-07-30T11:20:30.770Z,96118.19
2022-07-30T11:23:12.726Z,96120.47
2022-07-30T11:25:51.034Z,96108.91
2022-07-30T11:28:41.080Z,96106.84
2022-07-30T11:31:30.709Z,96103.72
2022-07-30T11:34:30.747Z,96101.78
2022-07-30T11:37:21.903Z,96099.09
2022-07-30T11:40:13.034Z,96114.59
2022-07-30T11:42:43.262Z,96109.13
2022-07-30T11:45:23.253Z,96109.78
2022-07-30T11:47:54.430Z,96101.88
2022-07-30T11:50:23.984Z,96107.41
2022-07-30T11:52:52.646Z,96114.13
2022-07-30T11:55:25.423Z,96098.88
2022-07-30T11:57:53.505Z,96093.06
2022-07-30T12:00:21.364Z,96103.53
2022-07-30T12:05:25.192Z,96104.94
2022-07-30T12:07:56.901Z,96102.97
2022-07-30T12:10:26.781Z,96099.25
2022-07-30T12:13:08.124Z,96106.50
2022-07-30T12:15:38.037Z,96107.72
2022-07-30T12:18:24.548Z,96094.16
2022-07-30T12:21:00.599Z,96108.97
2022-07-30T12:23:29.235Z,96107.25
2022-07-30T12:25:58.139Z,96107.38
2022-07-30T12:28:27.809Z,96103.41
2022-07-30T12:30:56.846Z,96101.88
2022-07-30T12:33:25.866Z,96113.91
2022-07-30T12:35:55.097Z,96104.97
2022-07-30T12:38:26.343Z,96109.50
2022-07-30T12:40:59.585Z,96101.69
2022-07-30T12:43:48.035Z,96101.78
2022-07-30T12:46:17.843Z,96099.19
2022-07-30T12:49:05.717Z,96103.81
2022-07-30T12:51:52.176Z,96090.44
2022-07-30T12:54:29.838Z,96096.59
2022-07-30T12:57:00.363Z,96069.13
2022-07-30T12:59:29.196Z,96094.41
2022-07-30T13:02:00.300Z,96101.69
2022-07-30T13:04:28.606Z,96097.41
2022-07-30T13:07:07.573Z,96089.34
2022-07-30T13:09:37.372Z,96093.28
2022-07-30T13:12:06.269Z,96082.94
2022-07-30T13:14:34.278Z,96084.56
2022-07-30T13:17:04.297Z,96106.69
2022-07-30T13:19:32.555Z,96093.66
2022-07-30T13:22:00.289Z,96086.66
2022-07-30T13:24:27.937Z,96079.31
2022-07-30T13:26:57.310Z,96094.94
2022-07-30T13:29:24.926Z,96094.59
2022-07-30T13:31:52.742Z,96093.47
2022-07-30T13:34:20.643Z,96098.09
2022-07-30T13:36:48.302Z,96092.94
2022-07-30T13:39:15.922Z,96087.06
2022-07-30T13:41:43.686Z,96084.00
2022-07-30T13:44:12.721Z,96085.34
2022-07-30T13:46:41.426Z,96093.47
2022-07-30T13:49:09.356Z,96077.81
2022-07-30T13:51:37.149Z,96059.19
2022-07-30T13:54:05.068Z,96081.38
2022-07-30T13:56:32.749Z,96065.44
2022-07-30T13:59:00.645Z,96071.66
2022-07-30T14:01:29.817Z,96076.88
2022-07-30T14:03:57.539Z,96071.66
2022-07-30T14:06:25.305Z,96075.00
2022-07-30T14:08:52.985Z,96079.84
2022-07-30T14:11:20.672Z,96076.69
2022-07-30T14:13:48.310Z,96069.94
2022-07-30T14:16:42.287Z,96074.50
2022-07-30T14:19:05.091Z,96071.25
2022-07-30T14:21:32.810Z,96075.84
2022-07-30T14:24:00.458Z,96060.88
